sensor_id;sensor_type;location;lat;lon;timestamp;P1;durP1;ratioP1;P2;durP2;ratioP2
68386;SDS011;55338;43.062;25.624;2023-03-03T00:00:45;33.75;;;17.60;;
68386;SDS011;55338;43.062;25.624;2023-03-03T00:03:11;38.08;;;17.48;;
68386;SDS011;55338;43.062;25.624;2023-03-03T00:05:41;37.80;;;17.92;;
68386;SDS011;55338;43.062;25.624;2023-03-03T00:08:06;37.97;;;17.58;;
68386;SDS011;55338;43.062;25.624;2023-03-03T00:10:33;40.88;;;18.80;;
68386;SDS011;55338;43.062;25.624;2023-03-03T00:12:59;42.40;;;18.00;;
68386;SDS011;55338;43.062;25.624;2023-03-03T00:15:25;40.55;;;19.13;;
68386;SDS011;55338;43.062;25.624;2023-03-03T00:21:31;42.27;;;18.50;;
68386;SDS011;55338;43.062;25.624;2023-03-03T00:26:45;41.65;;;19.27;;
68386;SDS011;55338;43.062;25.624;2023-03-03T00:29:27;42.33;;;19.00;;
68386;SDS011;55338;43.062;25.624;2023-03-03T00:34:34;39.67;;;18.07;;
68386;SDS011;55338;43.062;25.624;2023-03-03T00:37:01;38.30;;;18.30;;
68386;SDS011;55338;43.062;25.624;2023-03-03T00:39:30;37.05;;;17.92;;
68386;SDS011;55338;43.062;25.624;2023-03-03T00:41:57;40.60;;;18.98;;
68386;SDS011;55338;43.062;25.624;2023-03-03T00:44:57;38.33;;;17.88;;
68386;SDS011;55338;43.062;25.624;2023-03-03T00:49:52;40.20;;;19.38;;
68386;SDS011;55338;43.062;25.624;2023-03-03T00:52:52;39.13;;;18.40;;
68386;SDS011;55338;43.062;25.624;2023-03-03T00:55:27;40.28;;;18.02;;
68386;SDS011;55338;43.062;25.624;2023-03-03T00:58:26;36.38;;;16.75;;
68386;SDS011;55338;43.062;25.624;2023-03-03T01:01:24;45.38;;;19.35;;
68386;SDS011;55338;43.062;25.624;2023-03-03T01:03:49;42.97;;;17.83;;
68386;SDS011;55338;43.062;25.624;2023-03-03T01:06:15;38.40;;;18.30;;
68386;SDS011;55338;43.062;25.624;2023-03-03T01:08:41;42.67;;;18.25;;
68386;SDS011;55338;43.062;25.624;2023-03-03T01:11:16;43.10;;;17.77;;
68386;SDS011;55338;43.062;25.624;2023-03-03T01:14:18;39.78;;;19.75;;
68386;SDS011;55338;43.062;25.624;2023-03-03T01:17:16;40.70;;;18.83;;
68386;SDS011;55338;43.062;25.624;2023-03-03T01:19:42;39.37;;;19.30;;
68386;SDS011;55338;43.062;25.624;2023-03-03T01:22:08;37.72;;;17.90;;
68386;SDS011;55338;43.062;25.624;2023-03-03T01:24:34;39.78;;;18.75;;
68386;SDS011;55338;43.062;25.624;2023-03-03T01:27:00;39.07;;;18.47;;
68386;SDS011;55338;43.062;25.624;2023-03-03T01:29:25;40.60;;;17.70;;
68386;SDS011;55338;43.062;25.624;2023-03-03T01:31:51;35.00;;;17.90;;
68386;SDS011;55338;43.062;25.624;2023-03-03T01:34:17;39.53;;;17.47;;
68386;SDS011;55338;43.062;25.624;2023-03-03T01:36:42;40.92;;;18.67;;
68386;SDS011;55338;43.062;25.624;2023-03-03T01:39:09;41.15;;;18.65;;
68386;SDS011;55338;43.062;25.624;2023-03-03T01:41:41;39.88;;;18.85;;
68386;SDS011;55338;43.062;25.624;2023-03-03T01:44:10;38.50;;;18.08;;
68386;SDS011;55338;43.062;25.624;2023-03-03T01:49:39;42.08;;;19.10;;
68386;SDS011;55338;43.062;25.624;2023-03-03T01:54:52;36.13;;;16.85;;
68386;SDS011;55338;43.062;25.624;2023-03-03T01:57:23;46.40;;;18.00;;
68386;SDS011;55338;43.062;25.624;2023-03-03T02:00:25;40.25;;;19.38;;
68386;SDS011;55338;43.062;25.624;2023-03-03T02:03:23;39.10;;;18.13;;
68386;SDS011;55338;43.062;25.624;2023-03-03T02:05:51;38.73;;;17.37;;
68386;SDS011;55338;43.062;25.624;2023-03-03T02:08:21;35.88;;;16.23;;
68386;SDS011;55338;43.062;25.624;2023-03-03T02:10:51;39.55;;;18.38;;
68386;SDS011;55338;43.062;25.624;2023-03-03T02:13:19;39.78;;;18.40;;
68386;SDS011;55338;43.062;25.624;2023-03-03T02:15:49;43.20;;;18.23;;
68386;SDS011;55338;43.062;25.624;2023-03-03T02:18:16;39.97;;;19.17;;
68386;SDS011;55338;43.062;25.624;2023-03-03T02:26:17;37.47;;;18.25;;
68386;SDS011;55338;43.062;25.624;2023-03-03T02:28:47;38.10;;;16.60;;
68386;SDS011;55338;43.062;25.624;2023-03-03T02:31:15;39.42;;;18.02;;
68386;SDS011;55338;43.062;25.624;2023-03-03T02:33:43;35.63;;;17.75;;
68386;SDS011;55338;43.062;25.624;2023-03-03T02:36:11;42.25;;;18.95;;
68386;SDS011;55338;43.062;25.624;2023-03-03T02:44:25;42.88;;;19.15;;
68386;SDS011;55338;43.062;25.624;2023-03-03T02:47:25;35.95;;;16.98;;
68386;SDS011;55338;43.062;25.624;2023-03-03T02:50:23;42.42;;;17.95;;
68386;SDS011;55338;43.062;25.624;2023-03-03T02:53:21;42.85;;;18.75;;
68386;SDS011;55338;43.062;25.624;2023-03-03T02:55:46;38.85;;;17.65;;
68386;SDS011;55338;43.062;25.624;2023-03-03T02:58:12;35.63;;;16.73;;
68386;SDS011;55338;43.062;25.624;2023-03-03T03:00:38;41.45;;;18.08;;
68386;SDS011;55338;43.062;25.624;2023-03-03T03:03:03;41.85;;;17.60;;
68386;SDS011;55338;43.062;25.624;2023-03-03T03:05:29;40.17;;;18.00;;
68386;SDS011;55338;43.062;25.624;2023-03-03T03:07:55;36.53;;;17.63;;
68386;SDS011;55338;43.062;25.624;2023-03-03T03:10:21;37.78;;;17.80;;
68386;SDS011;55338;43.062;25.624;2023-03-03T03:12:47;40.78;;;17.58;;
68386;SDS011;55338;43.062;25.624;2023-03-03T03:15:12;38.37;;;17.47;;
68386;SDS011;55338;43.062;25.624;2023-03-03T03:17:41;40.55;;;18.42;;
68386;SDS011;55338;43.062;25.624;2023-03-03T03:20:07;37.42;;;15.98;;
68386;SDS011;55338;43.062;25.624;2023-03-03T03:22:33;36.78;;;17.48;;
68386;SDS011;55338;43.062;25.624;2023-03-03T03:24:59;36.90;;;17.47;;
68386;SDS011;55338;43.062;25.624;2023-03-03T03:27:25;41.65;;;18.83;;
68386;SDS011;55338;43.062;25.624;2023-03-03T03:29:51;35.70;;;17.57;;
68386;SDS011;55338;43.062;25.624;2023-03-03T03:32:16;37.92;;;17.38;;
68386;SDS011;55338;43.062;25.624;2023-03-03T03:34:42;42.57;;;17.63;;
68386;SDS011;55338;43.062;25.624;2023-03-03T03:37:08;40.60;;;18.80;;
68386;SDS011;55338;43.062;25.624;2023-03-03T03:39:34;42.17;;;18.87;;
68386;SDS011;55338;43.062;25.624;2023-03-03T03:42:00;40.40;;;17.42;;
68386;SDS011;55338;43.062;25.624;2023-03-03T03:44:58;44.67;;;17.08;;
68386;SDS011;55338;43.062;25.624;2023-03-03T03:47:56;36.15;;;17.55;;
68386;SDS011;55338;43.062;25.624;2023-03-03T03:50:22;40.20;;;17.77;;
68386;SDS011;55338;43.062;25.624;2023-03-03T03:52:48;46.30;;;18.63;;
68386;SDS011;55338;43.062;25.624;2023-03-03T03:55:13;43.40;;;18.83;;
68386;SDS011;55338;43.062;25.624;2023-03-03T03:57:40;40.22;;;18.40;;
68386;SDS011;55338;43.062;25.624;2023-03-03T04:00:06;39.63;;;17.77;;
68386;SDS011;55338;43.062;25.624;2023-03-03T04:02:33;47.65;;;19.67;;
68386;SDS011;55338;43.062;25.624;2023-03-03T04:05:00;41.97;;;18.10;;
68386;SDS011;55338;43.062;25.624;2023-03-03T04:07:25;46.80;;;18.40;;
68386;SDS011;55338;43.062;25.624;2023-03-03T04:09:51;41.22;;;18.40;;
68386;SDS011;55338;43.062;25.624;2023-03-03T04:12:17;47.10;;;17.73;;
68386;SDS011;55338;43.062;25.624;2023-03-03T04:15:15;36.53;;;18.05;;
68386;SDS011;55338;43.062;25.624;2023-03-03T04:18:13;48.22;;;17.40;;
68386;SDS011;55338;43.062;25.624;2023-03-03T04:21:12;33.83;;;16.35;;
68386;SDS011;55338;43.062;25.624;2023-03-03T04:23:38;37.57;;;17.80;;
68386;SDS011;55338;43.062;25.624;2023-03-03T04:26:04;42.13;;;18.50;;
68386;SDS011;55338;43.062;25.624;2023-03-03T04:28:30;42.10;;;18.95;;
68386;SDS011;55338;43.062;25.624;2023-03-03T04:30:56;42.63;;;18.77;;
68386;SDS011;55338;43.062;25.624;2023-03-03T04:33:21;52.20;;;18.67;;
68386;SDS011;55338;43.062;25.624;2023-03-03T04:35:47;45.67;;;18.43;;
68386;SDS011;55338;43.062;25.624;2023-03-03T04:38:16;36.88;;;17.30;;
68386;SDS011;55338;43.062;25.624;2023-03-03T04:40:42;41.63;;;19.00;;
68386;SDS011;55338;43.062;25.624;2023-03-03T04:43:08;37.67;;;17.92;;
68386;SDS011;55338;43.062;25.624;2023-03-03T04:45:41;42.83;;;17.90;;
68386;SDS011;55338;43.062;25.624;2023-03-03T04:48:08;37.63;;;17.77;;
68386;SDS011;55338;43.062;25.624;2023-03-03T04:50:33;39.07;;;18.60;;
68386;SDS011;55338;43.062;25.624;2023-03-03T04:52:59;43.60;;;17.98;;
68386;SDS011;55338;43.062;25.624;2023-03-03T04:55:25;37.17;;;18.13;;
68386;SDS011;55338;43.062;25.624;2023-03-03T04:57:51;38.67;;;18.48;;
68386;SDS011;55338;43.062;25.624;2023-03-03T05:00:17;40.77;;;18.20;;
68386;SDS011;55338;43.062;25.624;2023-03-03T05:03:15;37.55;;;16.83;;
68386;SDS011;55338;43.062;25.624;2023-03-03T05:06:13;40.40;;;16.90;;
68386;SDS011;55338;43.062;25.624;2023-03-03T05:09:11;45.35;;;19.00;;
68386;SDS011;55338;43.062;25.624;2023-03-03T05:11:37;45.40;;;19.20;;
68386;SDS011;55338;43.062;25.624;2023-03-03T05:14:02;40.88;;;17.88;;
68386;SDS011;55338;43.062;25.624;2023-03-03T05:16:28;39.73;;;19.73;;
68386;SDS011;55338;43.062;25.624;2023-03-03T05:18:54;39.33;;;17.55;;
68386;SDS011;55338;43.062;25.624;2023-03-03T05:21:20;40.65;;;18.08;;
68386;SDS011;55338;43.062;25.624;2023-03-03T05:23:46;40.97;;;18.60;;
68386;SDS011;55338;43.062;25.624;2023-03-03T05:26:44;45.00;;;19.38;;
68386;SDS011;55338;43.062;25.624;2023-03-03T05:29:42;43.42;;;18.88;;
68386;SDS011;55338;43.062;25.624;2023-03-03T05:32:40;39.55;;;17.10;;
68386;SDS011;55338;43.062;25.624;2023-03-03T05:35:06;40.97;;;18.47;;
68386;SDS011;55338;43.062;25.624;2023-03-03T05:37:32;41.45;;;17.88;;
68386;SDS011;55338;43.062;25.624;2023-03-03T05:39:57;43.07;;;17.80;;
68386;SDS011;55338;43.062;25.624;2023-03-03T05:42:23;44.38;;;19.73;;
68386;SDS011;55338;43.062;25.624;2023-03-03T05:44:49;42.40;;;18.63;;
68386;SDS011;55338;43.062;25.624;2023-03-03T05:47:16;43.08;;;18.83;;
68386;SDS011;55338;43.062;25.624;2023-03-03T05:49:42;39.67;;;17.58;;
68386;SDS011;55338;43.062;25.624;2023-03-03T05:52:08;41.73;;;19.47;;
68386;SDS011;55338;43.062;25.624;2023-03-03T05:54:34;37.45;;;18.13;;
68386;SDS011;55338;43.062;25.624;2023-03-03T06:04:00;47.25;;;18.92;;
68386;SDS011;55338;43.062;25.624;2023-03-03T06:06:26;41.53;;;19.27;;
68386;SDS011;55338;43.062;25.624;2023-03-03T06:08:52;39.45;;;16.05;;
68386;SDS011;55338;43.062;25.624;2023-03-03T06:11:18;46.15;;;20.90;;
68386;SDS011;55338;43.062;25.624;2023-03-03T06:13:44;34.22;;;15.75;;
68386;SDS011;55338;43.062;25.624;2023-03-03T06:16:10;44.20;;;19.13;;
68386;SDS011;55338;43.062;25.624;2023-03-03T06:18:35;46.72;;;19.38;;
68386;SDS011;55338;43.062;25.624;2023-03-03T06:21:01;44.67;;;20.23;;
68386;SDS011;55338;43.062;25.624;2023-03-03T06:23:27;44.72;;;19.17;;
68386;SDS011;55338;43.062;25.624;2023-03-03T06:25:53;47.25;;;20.73;;
68386;SDS011;55338;43.062;25.624;2023-03-03T06:28:29;42.77;;;19.10;;
68386;SDS011;55338;43.062;25.624;2023-03-03T06:30:55;52.30;;;21.75;;
68386;SDS011;55338;43.062;25.624;2023-03-03T06:33:21;43.88;;;19.98;;
68386;SDS011;55338;43.062;25.624;2023-03-03T06:35:48;46.83;;;19.60;;
68386;SDS011;55338;43.062;25.624;2023-03-03T06:38:17;46.65;;;19.50;;
68386;SDS011;55338;43.062;25.624;2023-03-03T06:40:44;44.55;;;20.40;;
68386;SDS011;55338;43.062;25.624;2023-03-03T06:43:10;48.70;;;19.88;;
68386;SDS011;55338;43.062;25.624;2023-03-03T06:45:36;48.85;;;19.40;;
68386;SDS011;55338;43.062;25.624;2023-03-03T06:48:03;45.60;;;19.17;;
68386;SDS011;55338;43.062;25.624;2023-03-03T06:50:29;43.83;;;18.13;;
68386;SDS011;55338;43.062;25.624;2023-03-03T06:52:59;39.00;;;17.47;;
68386;SDS011;55338;43.062;25.624;2023-03-03T06:55:34;40.53;;;18.13;;
68386;SDS011;55338;43.062;25.624;2023-03-03T06:58:00;50.65;;;20.60;;
68386;SDS011;55338;43.062;25.624;2023-03-03T07:00:59;47.72;;;18.98;;
68386;SDS011;55338;43.062;25.624;2023-03-03T07:03:27;41.03;;;18.48;;
68386;SDS011;55338;43.062;25.624;2023-03-03T07:06:00;43.93;;;18.60;;
68386;SDS011;55338;43.062;25.624;2023-03-03T07:08:30;45.20;;;18.95;;
68386;SDS011;55338;43.062;25.624;2023-03-03T07:10:56;48.10;;;20.98;;
68386;SDS011;55338;43.062;25.624;2023-03-03T07:13:32;39.83;;;18.88;;
68386;SDS011;55338;43.062;25.624;2023-03-03T07:16:00;43.67;;;19.77;;
68386;SDS011;55338;43.062;25.624;2023-03-03T07:19:16;44.23;;;19.13;;
68386;SDS011;55338;43.062;25.624;2023-03-03T07:21:36;44.05;;;18.77;;
68386;SDS011;55338;43.062;25.624;2023-03-03T07:24:36;43.50;;;18.88;;
68386;SDS011;55338;43.062;25.624;2023-03-03T07:27:27;46.88;;;20.40;;
68386;SDS011;55338;43.062;25.624;2023-03-03T07:30:28;51.08;;;22.45;;
68386;SDS011;55338;43.062;25.624;2023-03-03T07:33:27;64.23;;;24.17;;
68386;SDS011;55338;43.062;25.624;2023-03-03T07:35:56;44.60;;;19.75;;
68386;SDS011;55338;43.062;25.624;2023-03-03T07:38:34;51.50;;;21.33;;
68386;SDS011;55338;43.062;25.624;2023-03-03T07:41:09;47.85;;;21.35;;
68386;SDS011;55338;43.062;25.624;2023-03-03T07:43:40;47.45;;;21.58;;
68386;SDS011;55338;43.062;25.624;2023-03-03T07:46:16;41.00;;;18.90;;
68386;SDS011;55338;43.062;25.624;2023-03-03T07:48:49;41.75;;;19.00;;
68386;SDS011;55338;43.062;25.624;2023-03-03T07:51:21;48.67;;;20.05;;
68386;SDS011;55338;43.062;25.624;2023-03-03T07:53:52;49.78;;;21.23;;
68386;SDS011;55338;43.062;25.624;2023-03-03T07:56:41;47.35;;;19.52;;
68386;SDS011;55338;43.062;25.624;2023-03-03T07:59:47;45.70;;;18.93;;
68386;SDS011;55338;43.062;25.624;2023-03-03T08:02:58;46.72;;;18.08;;
68386;SDS011;55338;43.062;25.624;2023-03-03T08:05:42;53.10;;;20.38;;
68386;SDS011;55338;43.062;25.624;2023-03-03T08:10:43;46.60;;;20.57;;
68386;SDS011;55338;43.062;25.624;2023-03-03T08:18:48;49.08;;;21.00;;
68386;SDS011;55338;43.062;25.624;2023-03-03T08:21:48;43.35;;;19.63;;
68386;SDS011;55338;43.062;25.624;2023-03-03T08:24:14;44.87;;;20.20;;
68386;SDS011;55338;43.062;25.624;2023-03-03T08:26:39;50.55;;;20.90;;
68386;SDS011;55338;43.062;25.624;2023-03-03T08:29:05;45.90;;;20.97;;
68386;SDS011;55338;43.062;25.624;2023-03-03T08:31:31;55.10;;;22.15;;
68386;SDS011;55338;43.062;25.624;2023-03-03T08:33:57;47.97;;;20.70;;
68386;SDS011;55338;43.062;25.624;2023-03-03T08:36:23;48.38;;;21.35;;
68386;SDS011;55338;43.062;25.624;2023-03-03T08:38:49;50.13;;;21.50;;
68386;SDS011;55338;43.062;25.624;2023-03-03T08:41:15;51.93;;;20.93;;
68386;SDS011;55338;43.062;25.624;2023-03-03T08:43:41;46.95;;;20.35;;
68386;SDS011;55338;43.062;25.624;2023-03-03T08:46:09;50.03;;;21.37;;
68386;SDS011;55338;43.062;25.624;2023-03-03T08:48:36;48.95;;;20.90;;
68386;SDS011;55338;43.062;25.624;2023-03-03T08:51:02;55.95;;;22.75;;
68386;SDS011;55338;43.062;25.624;2023-03-03T08:54:00;48.78;;;20.88;;
68386;SDS011;55338;43.062;25.624;2023-03-03T08:56:26;49.90;;;21.47;;
68386;SDS011;55338;43.062;25.624;2023-03-03T08:58:51;52.40;;;22.20;;
68386;SDS011;55338;43.062;25.624;2023-03-03T09:01:17;55.23;;;21.73;;
68386;SDS011;55338;43.062;25.624;2023-03-03T09:03:43;53.95;;;22.52;;
68386;SDS011;55338;43.062;25.624;2023-03-03T09:06:09;57.35;;;23.83;;
68386;SDS011;55338;43.062;25.624;2023-03-03T09:08:36;52.97;;;22.33;;
68386;SDS011;55338;43.062;25.624;2023-03-03T09:11:02;52.42;;;22.23;;
68386;SDS011;55338;43.062;25.624;2023-03-03T09:13:34;51.92;;;22.23;;
68386;SDS011;55338;43.062;25.624;2023-03-03T09:16:00;54.50;;;23.38;;
68386;SDS011;55338;43.062;25.624;2023-03-03T09:18:36;53.67;;;21.87;;
68386;SDS011;55338;43.062;25.624;2023-03-03T09:21:14;50.70;;;20.83;;
68386;SDS011;55338;43.062;25.624;2023-03-03T09:24:26;49.65;;;19.77;;
68386;SDS011;55338;43.062;25.624;2023-03-03T09:26:53;46.05;;;19.23;;
68386;SDS011;55338;43.062;25.624;2023-03-03T09:29:26;43.10;;;19.03;;
68386;SDS011;55338;43.062;25.624;2023-03-03T09:32:25;48.60;;;20.90;;
68386;SDS011;55338;43.062;25.624;2023-03-03T09:37:51;41.78;;;17.85;;
68386;SDS011;55338;43.062;25.624;2023-03-03T09:49:54;45.58;;;19.88;;
68386;SDS011;55338;43.062;25.624;2023-03-03T09:57:58;43.63;;;18.90;;
68386;SDS011;55338;43.062;25.624;2023-03-03T10:00:45;40.97;;;18.10;;
68386;SDS011;55338;43.062;25.624;2023-03-03T10:06:33;42.08;;;18.38;;
68386;SDS011;55338;43.062;25.624;2023-03-03T10:15:26;40.67;;;17.15;;
68386;SDS011;55338;43.062;25.624;2023-03-03T10:26:13;37.15;;;16.40;;
68386;SDS011;55338;43.062;25.624;2023-03-03T10:41:00;39.85;;;17.08;;
68386;SDS011;55338;43.062;25.624;2023-03-03T10:55:00;30.92;;;13.75;;
68386;SDS011;55338;43.062;25.624;2023-03-03T11:05:42;30.90;;;13.70;;
68386;SDS011;55338;43.062;25.624;2023-03-03T11:12:22;34.23;;;13.40;;
68386;SDS011;55338;43.062;25.624;2023-03-03T11:20:03;30.38;;;13.02;;
68386;SDS011;55338;43.062;25.624;2023-03-03T11:32:00;25.95;;;12.65;;
68386;SDS011;55338;43.062;25.624;2023-03-03T11:40:40;21.67;;;9.60;;
68386;SDS011;55338;43.062;25.624;2023-03-03T11:43:48;27.13;;;12.80;;
68386;SDS011;55338;43.062;25.624;2023-03-03T11:47:01;33.70;;;13.93;;
68386;SDS011;55338;43.062;25.624;2023-03-03T12:04:57;33.13;;;13.10;;
68386;SDS011;55338;43.062;25.624;2023-03-03T12:12:32;29.83;;;13.95;;
68386;SDS011;55338;43.062;25.624;2023-03-03T12:15:05;31.02;;;12.73;;
68386;SDS011;55338;43.062;25.624;2023-03-03T12:23:44;35.35;;;14.95;;
68386;SDS011;55338;43.062;25.624;2023-03-03T12:32:06;35.07;;;14.87;;
68386;SDS011;55338;43.062;25.624;2023-03-03T12:37:50;40.22;;;14.73;;
68386;SDS011;55338;43.062;25.624;2023-03-03T12:43:46;32.78;;;14.50;;
68386;SDS011;55338;43.062;25.624;2023-03-03T12:46:18;35.73;;;14.73;;
68386;SDS011;55338;43.062;25.624;2023-03-03T12:48:46;39.35;;;15.25;;
68386;SDS011;55338;43.062;25.624;2023-03-03T12:57:20;37.67;;;15.10;;
68386;SDS011;55338;43.062;25.624;2023-03-03T13:02:48;32.83;;;14.35;;
68386;SDS011;55338;43.062;25.624;2023-03-03T13:05:50;38.00;;;16.17;;
68386;SDS011;55338;43.062;25.624;2023-03-03T13:11:02;41.13;;;15.00;;
68386;SDS011;55338;43.062;25.624;2023-03-03T13:20:03;40.08;;;16.40;;
68386;SDS011;55338;43.062;25.624;2023-03-03T13:22:53;40.65;;;16.92;;
68386;SDS011;55338;43.062;25.624;2023-03-03T13:28:23;40.87;;;17.27;;
68386;SDS011;55338;43.062;25.624;2023-03-03T13:31:38;34.45;;;15.13;;
68386;SDS011;55338;43.062;25.624;2023-03-03T13:34:07;44.78;;;17.58;;
68386;SDS011;55338;43.062;25.624;2023-03-03T13:37:09;39.03;;;15.82;;
68386;SDS011;55338;43.062;25.624;2023-03-03T13:39:40;36.83;;;14.68;;
68386;SDS011;55338;43.062;25.624;2023-03-03T13:42:54;38.43;;;14.83;;
68386;SDS011;55338;43.062;25.624;2023-03-03T14:00:16;48.42;;;18.58;;
68386;SDS011;55338;43.062;25.624;2023-03-03T14:05:34;42.33;;;17.25;;
68386;SDS011;55338;43.062;25.624;2023-03-03T14:21:56;40.08;;;16.63;;
68386;SDS011;55338;43.062;25.624;2023-03-03T14:24:58;42.90;;;16.60;;
68386;SDS011;55338;43.062;25.624;2023-03-03T14:27:35;39.72;;;16.40;;
68386;SDS011;55338;43.062;25.624;2023-03-03T14:30:37;43.90;;;17.48;;
68386;SDS011;55338;43.062;25.624;2023-03-03T14:33:39;40.50;;;17.17;;
68386;SDS011;55338;43.062;25.624;2023-03-03T14:36:57;41.88;;;16.00;;
68386;SDS011;55338;43.062;25.624;2023-03-03T14:39:34;39.03;;;15.10;;
68386;SDS011;55338;43.062;25.624;2023-03-03T14:50:51;43.22;;;16.38;;
68386;SDS011;55338;43.062;25.624;2023-03-03T14:55:43;39.58;;;15.55;;
68386;SDS011;55338;43.062;25.624;2023-03-03T14:58:25;41.00;;;17.33;;
68386;SDS011;55338;43.062;25.624;2023-03-03T15:01:29;42.45;;;17.15;;
68386;SDS011;55338;43.062;25.624;2023-03-03T15:03:57;37.00;;;13.98;;
68386;SDS011;55338;43.062;25.624;2023-03-03T15:06:28;32.70;;;14.05;;
68386;SDS011;55338;43.062;25.624;2023-03-03T15:11:55;41.78;;;14.70;;
68386;SDS011;55338;43.062;25.624;2023-03-03T15:14:28;40.70;;;16.20;;
68386;SDS011;55338;43.062;25.624;2023-03-03T15:25:57;46.80;;;19.10;;
68386;SDS011;55338;43.062;25.624;2023-03-03T15:39:33;46.38;;;18.67;;
68386;SDS011;55338;43.062;25.624;2023-03-03T15:42:17;37.33;;;15.02;;
68386;SDS011;55338;43.062;25.624;2023-03-03T15:45:47;36.15;;;14.85;;
68386;SDS011;55338;43.062;25.624;2023-03-03T16:00:26;34.85;;;14.45;;
68386;SDS011;55338;43.062;25.624;2023-03-03T16:03:11;29.00;;;13.95;;
68386;SDS011;55338;43.062;25.624;2023-03-03T16:05:57;31.92;;;14.32;;
68386;SDS011;55338;43.062;25.624;2023-03-03T16:08:47;34.05;;;13.38;;
68386;SDS011;55338;43.062;25.624;2023-03-03T16:11:22;32.15;;;12.98;;
68386;SDS011;55338;43.062;25.624;2023-03-03T16:14:00;35.78;;;13.38;;
68386;SDS011;55338;43.062;25.624;2023-03-03T16:16:57;29.88;;;11.90;;
68386;SDS011;55338;43.062;25.624;2023-03-03T16:20:39;31.38;;;13.60;;
68386;SDS011;55338;43.062;25.624;2023-03-03T16:28:48;37.03;;;15.23;;
68386;SDS011;55338;43.062;25.624;2023-03-03T16:31:18;33.38;;;14.88;;
68386;SDS011;55338;43.062;25.624;2023-03-03T16:34:00;34.22;;;15.02;;
68386;SDS011;55338;43.062;25.624;2023-03-03T16:36:37;39.42;;;15.85;;
68386;SDS011;55338;43.062;25.624;2023-03-03T17:03:57;37.10;;;15.97;;
68386;SDS011;55338;43.062;25.624;2023-03-03T17:06:35;38.03;;;16.02;;
68386;SDS011;55338;43.062;25.624;2023-03-03T17:09:21;40.60;;;15.88;;
68386;SDS011;55338;43.062;25.624;2023-03-03T17:12:22;32.63;;;15.00;;
68386;SDS011;55338;43.062;25.624;2023-03-03T17:15:38;36.25;;;13.82;;
68386;SDS011;55338;43.062;25.624;2023-03-03T17:26:14;38.75;;;16.50;;
68386;SDS011;55338;43.062;25.624;2023-03-03T17:42:05;38.20;;;15.60;;
68386;SDS011;55338;43.062;25.624;2023-03-03T17:44:38;36.65;;;15.82;;
68386;SDS011;55338;43.062;25.624;2023-03-03T17:50:39;35.85;;;14.73;;
68386;SDS011;55338;43.062;25.624;2023-03-03T18:09:44;34.73;;;13.90;;
68386;SDS011;55338;43.062;25.624;2023-03-03T18:15:38;29.40;;;12.95;;
68386;SDS011;55338;43.062;25.624;2023-03-03T18:26:50;35.45;;;13.45;;
68386;SDS011;55338;43.062;25.624;2023-03-03T18:40:36;37.63;;;15.10;;
68386;SDS011;55338;43.062;25.624;2023-03-03T18:42:45;32.55;;;13.75;;
68386;SDS011;55338;43.062;25.624;2023-03-03T18:51:06;33.63;;;13.80;;
68386;SDS011;55338;43.062;25.624;2023-03-03T19:16:50;36.92;;;15.00;;
68386;SDS011;55338;43.062;25.624;2023-03-03T19:19:32;39.37;;;15.00;;
68386;SDS011;55338;43.062;25.624;2023-03-03T19:22:51;42.25;;;16.65;;
68386;SDS011;55338;43.062;25.624;2023-03-03T19:28:58;43.45;;;16.92;;
68386;SDS011;55338;43.062;25.624;2023-03-03T19:31:54;48.13;;;18.05;;
68386;SDS011;55338;43.062;25.624;2023-03-03T19:37:00;41.60;;;17.05;;
68386;SDS011;55338;43.062;25.624;2023-03-03T19:44:42;45.75;;;18.02;;
68386;SDS011;55338;43.062;25.624;2023-03-03T19:50:13;46.97;;;17.40;;
68386;SDS011;55338;43.062;25.624;2023-03-03T19:53:06;44.63;;;17.77;;
68386;SDS011;55338;43.062;25.624;2023-03-03T19:55:43;42.40;;;17.08;;
68386;SDS011;55338;43.062;25.624;2023-03-03T20:00:55;42.40;;;17.73;;
68386;SDS011;55338;43.062;25.624;2023-03-03T20:03:52;36.13;;;15.82;;
68386;SDS011;55338;43.062;25.624;2023-03-03T20:15:09;39.80;;;15.40;;
68386;SDS011;55338;43.062;25.624;2023-03-03T20:27:33;47.95;;;17.60;;
68386;SDS011;55338;43.062;25.624;2023-03-03T20:34:03;39.10;;;16.58;;
68386;SDS011;55338;43.062;25.624;2023-03-03T20:39:08;47.65;;;19.45;;
68386;SDS011;55338;43.062;25.624;2023-03-03T20:44:08;52.53;;;21.30;;
68386;SDS011;55338;43.062;25.624;2023-03-03T21:00:39;46.25;;;17.52;;
68386;SDS011;55338;43.062;25.624;2023-03-03T21:03:30;51.60;;;19.92;;
68386;SDS011;55338;43.062;25.624;2023-03-03T21:06:14;52.97;;;21.25;;
68386;SDS011;55338;43.062;25.624;2023-03-03T21:11:15;53.50;;;21.67;;
68386;SDS011;55338;43.062;25.624;2023-03-03T21:13:49;52.35;;;22.40;;
68386;SDS011;55338;43.062;25.624;2023-03-03T21:18:56;52.28;;;21.67;;
68386;SDS011;55338;43.062;25.624;2023-03-03T21:22:02;51.65;;;21.65;;
68386;SDS011;55338;43.062;25.624;2023-03-03T21:25:01;52.13;;;22.43;;
68386;SDS011;55338;43.062;25.624;2023-03-03T21:30:04;50.75;;;21.92;;
68386;SDS011;55338;43.062;25.624;2023-03-03T21:32:35;48.47;;;21.83;;
68386;SDS011;55338;43.062;25.624;2023-03-03T21:37:46;51.00;;;19.95;;
68386;SDS011;55338;43.062;25.624;2023-03-03T21:40:17;50.35;;;19.73;;
68386;SDS011;55338;43.062;25.624;2023-03-03T21:43:40;43.92;;;19.20;;
68386;SDS011;55338;43.062;25.624;2023-03-03T21:46:40;42.15;;;18.30;;
68386;SDS011;55338;43.062;25.624;2023-03-03T21:49:39;54.20;;;19.20;;
68386;SDS011;55338;43.062;25.624;2023-03-03T21:52:12;50.55;;;21.02;;
68386;SDS011;55338;43.062;25.624;2023-03-03T21:54:40;45.65;;;18.23;;
68386;SDS011;55338;43.062;25.624;2023-03-03T21:57:07;43.45;;;17.13;;
68386;SDS011;55338;43.062;25.624;2023-03-03T21:59:33;42.63;;;17.13;;
68386;SDS011;55338;43.062;25.624;2023-03-03T22:01:59;46.03;;;18.30;;
68386;SDS011;55338;43.062;25.624;2023-03-03T22:04:25;44.22;;;18.88;;
68386;SDS011;55338;43.062;25.624;2023-03-03T22:06:50;46.93;;;18.23;;
68386;SDS011;55338;43.062;25.624;2023-03-03T22:09:17;41.65;;;17.80;;
68386;SDS011;55338;43.062;25.624;2023-03-03T22:11:43;45.90;;;18.17;;
68386;SDS011;55338;43.062;25.624;2023-03-03T22:14:41;42.83;;;17.17;;
68386;SDS011;55338;43.062;25.624;2023-03-03T22:17:38;42.38;;;17.33;;
68386;SDS011;55338;43.062;25.624;2023-03-03T22:20:37;46.90;;;18.67;;
68386;SDS011;55338;43.062;25.624;2023-03-03T22:23:02;42.90;;;18.10;;
68386;SDS011;55338;43.062;25.624;2023-03-03T22:25:28;49.10;;;21.87;;
68386;SDS011;55338;43.062;25.624;2023-03-03T22:37:54;51.53;;;20.10;;
68386;SDS011;55338;43.062;25.624;2023-03-03T22:40:19;51.63;;;20.67;;
68386;SDS011;55338;43.062;25.624;2023-03-03T22:42:45;48.60;;;19.80;;
68386;SDS011;55338;43.062;25.624;2023-03-03T22:45:43;45.70;;;19.65;;
68386;SDS011;55338;43.062;25.624;2023-03-03T22:48:09;48.10;;;20.05;;
68386;SDS011;55338;43.062;25.624;2023-03-03T22:50:35;46.70;;;18.65;;
68386;SDS011;55338;43.062;25.624;2023-03-03T22:53:06;44.00;;;19.02;;